createdAt,value
2023-04-24T00:02:03.377Z,7.23
2023-04-24T00:04:36.981Z,7.37
2023-04-24T00:07:10.170Z,7.63
2023-04-24T00:09:43.710Z,7.28
2023-04-24T00:12:17.742Z,7.12
2023-04-24T00:14:52.774Z,7.97
2023-04-24T00:17:25.170Z,7.43
2023-04-24T00:19:59.730Z,7.53
2023-04-24T00:22:34.307Z,8.00
2023-04-24T00:25:08.526Z,7.63
2023-04-24T00:27:41.169Z,8.20
2023-04-24T00:30:15.667Z,7.87
2023-04-24T00:32:48.940Z,7.40
2023-04-24T00:35:22.726Z,7.70
2023-04-24T00:37:56.369Z,7.47
2023-04-24T00:40:29.253Z,7.67
2023-04-24T00:43:01.807Z,7.80
2023-04-24T00:45:34.512Z,7.87
2023-04-24T00:48:06.929Z,7.77
2023-04-24T00:50:42.712Z,8.20
2023-04-24T00:53:18.911Z,7.67
2023-04-24T00:55:52.053Z,7.90
2023-04-24T00:58:25.288Z,8.30
2023-04-24T01:00:58.775Z,8.67
2023-04-24T01:03:34.006Z,8.33
2023-04-24T01:06:09.103Z,7.93
2023-04-24T01:08:44.102Z,8.10
2023-04-24T01:11:17.887Z,8.37
2023-04-24T01:13:51.830Z,7.27
2023-04-24T01:16:24.815Z,8.60
2023-04-24T01:18:57.743Z,8.27
2023-04-24T01:21:32.944Z,8.17
2023-04-24T01:24:07.778Z,7.63
2023-04-24T01:26:40.570Z,7.80
2023-04-24T01:29:15.614Z,8.23
2023-04-24T01:31:51.246Z,9.10
2023-04-24T01:34:23.960Z,8.30
2023-04-24T01:36:57.640Z,8.70
2023-04-24T01:39:30.296Z,8.68
2023-04-24T01:42:03.960Z,7.87
2023-04-24T01:44:37.618Z,8.53
2023-04-24T01:47:10.716Z,8.33
2023-04-24T01:49:43.714Z,8.27
2023-04-24T01:52:20.682Z,8.80
2023-04-24T01:54:57.053Z,8.10
2023-04-24T01:57:31.823Z,9.57
2023-04-24T02:00:08.678Z,8.33
2023-04-24T02:02:48.616Z,8.37
2023-04-24T02:05:23.562Z,9.20
2023-04-24T02:07:57.270Z,8.77
2023-04-24T02:10:29.911Z,8.20
2023-04-24T02:13:06.099Z,8.73
2023-04-24T02:15:38.710Z,8.18
2023-04-24T02:18:11.470Z,8.03
2023-04-24T02:20:45.666Z,9.17
2023-04-24T02:23:19.588Z,8.47
2023-04-24T02:25:54.420Z,8.70
2023-04-24T02:28:26.776Z,8.73
2023-04-24T02:31:01.672Z,7.97
2023-04-24T02:33:34.433Z,8.13
2023-04-24T02:36:09.230Z,8.45
2023-04-24T02:38:41.862Z,8.90
2023-04-24T02:43:49.843Z,8.50
2023-04-24T02:46:22.183Z,8.95
2023-04-24T02:48:57.280Z,9.27
2023-04-24T02:51:30.284Z,8.93
2023-04-24T02:54:03.129Z,9.07
2023-04-24T02:56:37.492Z,9.03
2023-04-24T02:59:11.710Z,8.13
2023-04-24T03:01:45.520Z,8.83
2023-04-24T03:04:21.628Z,8.10
2023-04-24T03:06:56.053Z,9.03
2023-04-24T03:09:28.723Z,9.03
2023-04-24T03:12:02.796Z,9.43
2023-04-24T03:14:37.128Z,9.60
2023-04-24T03:17:10.022Z,8.53
2023-04-24T03:19:43.817Z,9.17
2023-04-24T03:22:17.228Z,8.93
2023-04-24T03:24:49.796Z,9.30
2023-04-24T03:27:25.351Z,9.35
2023-04-24T03:30:03.645Z,9.30
2023-04-24T03:32:47.335Z,9.97
2023-04-24T03:35:23.234Z,9.47
2023-04-24T03:37:56.325Z,9.57
2023-04-24T03:40:48.031Z,9.27
2023-04-24T03:43:45.822Z,9.67
2023-04-24T03:46:34.778Z,9.37
2023-04-24T03:49:09.005Z,8.83
2023-04-24T03:51:47.812Z,8.97
2023-04-24T03:54:24.135Z,9.83
2023-04-24T03:56:57.625Z,10.20
2023-04-24T03:59:34.398Z,9.58
2023-04-24T04:02:27.867Z,8.83
2023-04-24T04:05:00.654Z,9.75
2023-04-24T04:07:37.327Z,10.27
2023-04-24T04:10:11.599Z,9.67
2023-04-24T04:12:46.572Z,8.70
2023-04-24T04:15:19.210Z,9.60
2023-04-24T04:17:51.777Z,8.70
2023-04-24T04:20:25.395Z,8.47
2023-04-24T04:22:58.077Z,8.85
2023-04-24T04:25:41.491Z,8.93
2023-04-24T04:28:23.927Z,8.10
2023-04-24T04:30:56.935Z,8.07
2023-04-24T04:33:29.941Z,7.97
2023-04-24T04:36:06.921Z,8.70
2023-04-24T04:38:43.061Z,7.60
2023-04-24T04:41:27.503Z,7.50
2023-04-24T04:44:00.560Z,7.53
2023-04-24T04:46:35.545Z,7.80
2023-04-24T04:49:18.174Z,7.37
2023-04-24T04:51:53.764Z,7.40
2023-04-24T04:54:26.826Z,8.10
2023-04-24T04:57:00.064Z,7.13
2023-04-24T04:59:32.718Z,7.47
2023-04-24T05:02:14.309Z,7.30
2023-04-24T05:04:47.478Z,7.50
2023-04-24T05:07:20.953Z,7.83
2023-04-24T05:09:58.247Z,6.80
2023-04-24T05:12:30.995Z,7.87
2023-04-24T05:15:04.289Z,7.22
2023-04-24T05:17:37.140Z,6.35
2023-04-24T05:20:11.677Z,7.20
2023-04-24T05:22:45.967Z,6.50
2023-04-24T05:25:19.933Z,6.40
2023-04-24T05:27:58.765Z,7.30
2023-04-24T05:30:31.571Z,6.35
2023-04-24T05:33:04.807Z,6.53
2023-04-24T05:35:47.252Z,7.00
2023-04-24T05:38:20.878Z,6.67
2023-04-24T05:40:54.873Z,6.70
2023-04-24T05:43:27.725Z,7.33
2023-04-24T05:46:01.699Z,7.35
2023-04-24T05:48:34.354Z,6.97
2023-04-24T05:51:09.005Z,7.00
2023-04-24T05:53:41.450Z,7.17
2023-04-24T05:56:15.045Z,7.00
2023-04-24T05:58:47.786Z,7.05
2023-04-24T06:03:58.602Z,6.63
2023-04-24T06:06:36.980Z,6.13
2023-04-24T06:09:09.922Z,7.30
2023-04-24T06:11:42.930Z,7.57
2023-04-24T06:14:16.577Z,7.40
2023-04-24T06:17:11.482Z,7.13
2023-04-24T06:19:51.250Z,7.23
2023-04-24T06:22:25.186Z,7.47
2023-04-24T06:24:59.449Z,7.05
2023-04-24T06:27:34.444Z,7.90
2023-04-24T06:30:09.623Z,6.40
2023-04-24T06:32:43.258Z,6.30
2023-04-24T06:35:15.636Z,7.03
2023-04-24T06:37:49.144Z,6.20
2023-04-24T06:40:21.981Z,7.62
2023-04-24T06:42:54.255Z,7.50
2023-04-24T06:45:26.461Z,7.07
2023-04-24T06:47:59.496Z,7.10
2023-04-24T06:50:31.884Z,6.50
2023-04-24T06:53:04.320Z,7.40
2023-04-24T06:55:37.906Z,6.43
2023-04-24T07:00:41.889Z,6.70
2023-04-24T07:03:17.338Z,7.03
2023-04-24T07:05:54.578Z,6.60
2023-04-24T07:08:27.619Z,7.03
2023-04-24T07:10:59.892Z,6.72
2023-04-24T07:13:32.255Z,6.63
2023-04-24T07:16:05.193Z,6.60
2023-04-24T07:18:39.686Z,6.37
2023-04-24T07:21:12.510Z,6.90
2023-04-24T07:23:45.290Z,6.67
2023-04-24T07:26:18.206Z,7.53
2023-04-24T07:28:50.875Z,5.85
2023-04-24T07:31:23.405Z,6.90
2023-04-24T07:33:59.279Z,7.00
2023-04-24T07:36:34.547Z,6.73
2023-04-24T07:39:08.495Z,6.77
2023-04-24T07:41:43.632Z,6.62
2023-04-24T07:44:16.798Z,6.73
2023-04-24T07:46:53.666Z,6.43
2023-04-24T07:49:26.340Z,6.70
2023-04-24T07:51:58.816Z,7.20
2023-04-24T07:54:31.433Z,5.60
2023-04-24T07:57:04.013Z,6.83
2023-04-24T07:59:36.505Z,6.40
2023-04-24T08:02:09.078Z,6.30
2023-04-24T08:04:41.984Z,6.37
2023-04-24T08:07:18.197Z,7.10
2023-04-24T08:12:25.824Z,6.03
2023-04-24T08:14:58.284Z,6.40
2023-04-24T08:17:31.960Z,6.60
2023-04-24T08:20:06.406Z,5.73
2023-04-24T08:22:38.988Z,6.13
2023-04-24T08:25:13.404Z,5.87
2023-04-24T08:27:46.566Z,6.67
2023-04-24T08:30:19.646Z,6.90
2023-04-24T08:32:53.357Z,6.17
2023-04-24T08:35:26.130Z,6.20
2023-04-24T08:37:58.442Z,6.10
2023-04-24T08:40:36.511Z,6.57
2023-04-24T08:43:09.442Z,6.03
2023-04-24T08:45:42.690Z,7.37
2023-04-24T08:48:27.726Z,6.33
2023-04-24T08:51:05.405Z,6.97
2023-04-24T08:53:38.519Z,7.10
2023-04-24T08:56:11.749Z,6.30
2023-04-24T08:58:47.371Z,5.85
2023-04-24T09:01:21.239Z,7.57
2023-04-24T09:03:59.243Z,6.43
2023-04-24T09:06:36.154Z,6.17
2023-04-24T09:09:08.766Z,6.77
2023-04-24T09:11:42.285Z,5.47
2023-04-24T09:14:16.986Z,5.70
2023-04-24T09:21:56.947Z,6.10
2023-04-24T09:27:03.844Z,5.80
2023-04-24T09:29:36.352Z,5.90
2023-04-24T09:32:26.228Z,5.40
2023-04-24T09:35:13.519Z,4.87
2023-04-24T09:37:48.089Z,5.03
2023-04-24T09:40:22.516Z,4.70
2023-04-24T09:42:59.113Z,4.73
2023-04-24T09:45:39.375Z,4.30
2023-04-24T09:48:14.345Z,5.23
2023-04-24T09:50:50.991Z,5.07
2023-04-24T09:53:28.602Z,5.13
2023-04-24T09:56:09.382Z,4.67
2023-04-24T09:58:43.057Z,5.10
2023-04-24T10:01:17.718Z,4.30
2023-04-24T10:03:52.990Z,4.20
2023-04-24T10:06:33.070Z,5.57
2023-04-24T10:09:06.644Z,4.80
2023-04-24T10:11:43.808Z,4.33
2023-04-24T10:14:19.208Z,4.30
2023-04-24T10:16:55.234Z,4.67
2023-04-24T10:19:29.454Z,5.00
2023-04-24T10:22:03.009Z,4.90
2023-04-24T10:24:37.328Z,4.13
2023-04-24T10:27:10.514Z,4.13
2023-04-24T10:32:14.904Z,4.77
2023-04-24T10:34:47.598Z,4.93
2023-04-24T10:39:56.050Z,4.43
2023-04-24T10:42:32.051Z,4.37
2023-04-24T10:45:11.637Z,3.90
2023-04-24T10:48:04.340Z,4.50
2023-04-24T10:50:50.705Z,4.50
2023-04-24T10:53:25.424Z,4.60
2023-04-24T10:56:05.036Z,4.10
2023-04-24T10:58:46.158Z,5.00
2023-04-24T11:01:30.494Z,4.00
2023-04-24T11:04:06.097Z,3.70
2023-04-24T11:06:39.860Z,3.53
2023-04-24T11:09:14.257Z,3.60
2023-04-24T11:11:51.151Z,4.00
2023-04-24T11:14:23.569Z,4.20
2023-04-24T11:16:57.500Z,3.80
2023-04-24T11:19:32.287Z,3.87
2023-04-24T11:22:06.995Z,3.90
2023-04-24T11:24:52.166Z,4.20
2023-04-24T11:27:32.160Z,4.03
2023-04-24T11:30:06.133Z,4.40
2023-04-24T11:32:41.546Z,4.50
2023-04-24T11:35:18.045Z,4.17
2023-04-24T11:38:13.084Z,4.40
2023-04-24T11:40:47.236Z,4.40
2023-04-24T11:43:21.359Z,4.43
2023-04-24T11:45:55.404Z,5.30
2023-04-24T11:48:28.257Z,4.87
2023-04-24T11:51:04.063Z,4.75
2023-04-24T11:53:38.565Z,4.50
2023-04-24T11:56:12.605Z,4.60
2023-04-24T11:58:45.950Z,4.60
2023-04-24T12:01:18.304Z,4.63
2023-04-24T12:04:02.237Z,4.50
2023-04-24T12:06:35.248Z,4.07
2023-04-24T12:09:17.775Z,4.20
2023-04-24T12:11:59.286Z,4.50
2023-04-24T12:14:31.738Z,4.70
2023-04-24T12:17:07.000Z,4.40
2023-04-24T12:19:47.965Z,4.90
2023-04-24T12:22:21.037Z,4.80
2023-04-24T12:25:04.312Z,5.37
2023-04-24T12:27:37.088Z,4.40
2023-04-24T12:30:15.371Z,4.70
2023-04-24T12:32:51.564Z,5.07
2023-04-24T12:35:28.792Z,4.53
2023-04-24T12:38:10.243Z,6.70
2023-04-24T12:40:44.228Z,5.03
2023-04-24T12:43:20.566Z,4.27
2023-04-24T12:45:53.528Z,5.70
2023-04-24T12:48:26.993Z,3.87
2023-04-24T12:51:02.834Z,5.27
2023-04-24T12:53:35.501Z,4.30
2023-04-24T12:56:10.425Z,3.47
2023-04-24T12:58:44.695Z,5.37
2023-04-24T13:01:17.096Z,3.20
2023-04-24T13:03:50.475Z,3.40
2023-04-24T13:06:27.711Z,3.70
2023-04-24T13:09:00.419Z,2.90
2023-04-24T13:11:32.987Z,2.60
2023-04-24T13:14:05.365Z,2.90
2023-04-24T13:16:47.686Z,2.73
2023-04-24T13:19:20.326Z,3.07
2023-04-24T13:21:53.463Z,3.20
2023-04-24T13:24:27.223Z,2.75
2023-04-24T13:27:00.298Z,2.80
2023-04-24T13:29:33.922Z,3.33
2023-04-24T13:32:07.017Z,2.60
2023-04-24T13:34:40.320Z,3.00
2023-04-24T13:37:18.427Z,2.27
2023-04-24T13:39:58.789Z,2.43
2023-04-24T13:42:31.686Z,2.80
2023-04-24T13:45:21.338Z,2.30
2023-04-24T13:48:04.298Z,3.10
2023-04-24T13:50:36.669Z,2.37
2023-04-24T13:53:09.407Z,2.57
2023-04-24T13:55:41.880Z,2.73
2023-04-24T13:58:16.211Z,2.87
2023-04-24T14:00:51.969Z,2.73
2023-04-24T14:03:25.190Z,2.80
2023-04-24T14:05:58.792Z,2.73
2023-04-24T14:08:31.261Z,2.87
2023-04-24T14:11:04.629Z,2.77
2023-04-24T14:13:38.073Z,3.22
2023-04-24T14:16:11.134Z,2.90
2023-04-24T14:18:46.198Z,2.80
2023-04-24T14:21:18.618Z,3.37
2023-04-24T14:23:51.688Z,3.07
2023-04-24T14:26:25.831Z,2.55
2023-04-24T14:29:11.642Z,3.20
2023-04-24T14:31:49.892Z,2.80
2023-04-24T14:34:22.738Z,2.70
2023-04-24T14:36:58.684Z,2.77
2023-04-24T14:39:31.395Z,2.27
2023-04-24T14:42:04.027Z,2.57
2023-04-24T14:44:42.768Z,2.73
2023-04-24T14:47:16.236Z,2.97
2023-04-24T14:49:51.552Z,2.52
2023-04-24T14:52:23.899Z,2.53
2023-04-24T14:54:56.374Z,2.83
2023-04-24T14:57:29.247Z,2.80
2023-04-24T15:00:02.162Z,2.80
2023-04-24T15:02:35.150Z,3.10
2023-04-24T15:05:10.208Z,2.50
2023-04-24T15:07:43.751Z,2.90
2023-04-24T15:10:18.917Z,2.83
2023-04-24T15:15:22.553Z,3.10
2023-04-24T15:17:56.438Z,2.40
2023-04-24T15:20:29.226Z,3.00
2023-04-24T15:23:03.439Z,2.50
2023-04-24T15:25:39.157Z,2.77
2023-04-24T15:28:11.780Z,2.57
2023-04-24T15:30:45.957Z,2.60
2023-04-24T15:33:19.159Z,2.47
2023-04-24T15:35:52.512Z,2.83
2023-04-24T15:38:25.173Z,2.47
2023-04-24T15:40:57.623Z,2.70
2023-04-24T15:43:35.448Z,3.00
2023-04-24T15:46:11.374Z,2.60
2023-04-24T15:48:46.107Z,2.30
2023-04-24T15:51:18.461Z,2.70
2023-04-24T15:53:51.444Z,2.90
2023-04-24T15:56:24.606Z,2.70
2023-04-24T15:58:57.059Z,2.72
2023-04-24T16:01:29.703Z,3.30
2023-04-24T16:04:02.488Z,2.73
2023-04-24T16:06:35.148Z,2.60
2023-04-24T16:09:08.826Z,2.92
2023-04-24T16:11:41.763Z,3.30
2023-04-24T16:14:14.139Z,2.67
2023-04-24T16:16:49.426Z,2.60
2023-04-24T16:19:21.914Z,2.77
2023-04-24T16:21:56.670Z,3.23
2023-04-24T16:24:29.598Z,2.93
2023-04-24T16:27:04.635Z,2.87
2023-04-24T16:29:37.200Z,3.03
2023-04-24T16:32:10.588Z,3.20
2023-04-24T16:34:43.345Z,2.70
2023-04-24T16:37:16.611Z,2.87
2023-04-24T16:39:55.299Z,2.93
2023-04-24T16:42:33.573Z,2.90
2023-04-24T16:45:08.642Z,2.90
2023-04-24T16:47:43.721Z,3.20
2023-04-24T16:50:16.875Z,3.27
2023-04-24T16:52:54.099Z,3.93
2023-04-24T16:55:27.810Z,5.80
2023-04-24T17:00:31.647Z,9.53
2023-04-24T17:03:06.783Z,9.67
2023-04-24T17:05:39.625Z,10.37
2023-04-24T17:08:12.676Z,11.43
2023-04-24T17:10:46.313Z,11.03
2023-04-24T17:13:18.962Z,10.88
2023-04-24T17:15:51.315Z,8.77
2023-04-24T17:18:24.848Z,7.80
2023-04-24T17:20:57.215Z,6.85
2023-04-24T17:23:29.686Z,7.27
2023-04-24T17:26:02.321Z,4.60
2023-04-24T17:28:36.654Z,4.90
2023-04-24T17:31:10.084Z,5.30
2023-04-24T17:33:42.542Z,4.62
2023-04-24T17:36:14.978Z,5.17
2023-04-24T17:38:48.461Z,5.40
2023-04-24T17:41:21.837Z,10.00
2023-04-24T17:43:54.461Z,10.63
2023-04-24T17:46:27.467Z,10.87
2023-04-24T17:49:00.296Z,8.73
2023-04-24T17:51:33.003Z,8.53
2023-04-24T17:54:05.622Z,9.17
2023-04-24T17:56:38.529Z,8.23
2023-04-24T17:59:12.360Z,8.23
2023-04-24T18:01:47.959Z,8.70
2023-04-24T18:04:20.735Z,9.40
2023-04-24T18:06:53.498Z,10.03
2023-04-24T18:09:26.307Z,19.23
2023-04-24T18:11:58.646Z,18.60
2023-04-24T18:14:31.677Z,22.27
2023-04-24T18:17:05.489Z,24.80
2023-04-24T18:19:38.769Z,27.03
2023-04-24T18:22:13.622Z,32.93
2023-04-24T18:24:50.612Z,37.40
2023-04-24T18:27:29.412Z,44.93
2023-04-24T18:30:03.776Z,50.53
2023-04-24T18:32:36.409Z,52.40
2023-04-24T18:35:10.957Z,54.75
2023-04-24T18:37:43.439Z,64.07
2023-04-24T18:40:18.685Z,67.47
2023-04-24T18:42:51.661Z,69.00
2023-04-24T18:45:24.411Z,54.93
2023-04-24T18:47:57.211Z,47.50
2023-04-24T18:50:32.000Z,36.97
2023-04-24T18:53:04.529Z,41.83
2023-04-24T18:55:37.504Z,21.83
2023-04-24T18:58:12.685Z,17.00
2023-04-24T19:00:48.064Z,16.80
2023-04-24T19:03:20.995Z,10.90
2023-04-24T19:05:54.283Z,8.87
2023-04-24T19:08:26.610Z,7.20
2023-04-24T19:10:59.063Z,6.70
2023-04-24T19:13:31.556Z,5.47
2023-04-24T19:16:04.823Z,6.00
2023-04-24T19:18:38.178Z,5.40
2023-04-24T19:21:10.988Z,5.87
2023-04-24T19:23:46.648Z,5.37
2023-04-24T19:26:19.229Z,6.00
2023-04-24T19:28:53.781Z,5.30
2023-04-24T19:31:28.888Z,5.20
2023-04-24T19:34:06.568Z,5.10
2023-04-24T19:36:43.957Z,5.73
2023-04-24T19:39:17.196Z,5.30
2023-04-24T19:41:51.162Z,5.43
2023-04-24T19:44:23.894Z,5.60
2023-04-24T19:46:56.281Z,5.03
2023-04-24T19:49:29.220Z,5.27
2023-04-24T19:52:02.184Z,5.70
2023-04-24T19:54:36.755Z,5.97
2023-04-24T19:57:11.553Z,5.97
2023-04-24T19:59:44.182Z,6.13
2023-04-24T20:04:51.089Z,5.80
2023-04-24T20:07:24.270Z,7.13
2023-04-24T20:09:58.124Z,5.70
2023-04-24T20:12:36.376Z,6.70
2023-04-24T20:15:12.111Z,6.60
2023-04-24T20:17:48.122Z,6.17
2023-04-24T20:20:20.770Z,5.63
2023-04-24T20:22:53.482Z,6.43
2023-04-24T20:25:26.220Z,6.77
2023-04-24T20:27:58.862Z,6.83
2023-04-24T20:30:32.729Z,6.33
2023-04-24T20:33:05.584Z,7.20
2023-04-24T20:35:38.275Z,6.73
2023-04-24T20:38:11.725Z,6.37
2023-04-24T20:40:57.279Z,5.93
2023-04-24T20:43:31.155Z,6.63
2023-04-24T20:46:04.037Z,6.93
2023-04-24T20:48:36.705Z,6.70
2023-04-24T20:51:09.330Z,7.47
2023-04-24T20:53:49.754Z,7.23
2023-04-24T20:56:24.945Z,7.40
2023-04-24T20:58:59.155Z,7.33
2023-04-24T21:04:05.994Z,6.97
2023-04-24T21:06:38.553Z,7.80
2023-04-24T21:09:12.635Z,8.20
2023-04-24T21:11:46.517Z,8.37
2023-04-24T21:14:22.052Z,8.00
2023-04-24T21:16:56.722Z,7.40
2023-04-24T21:19:29.851Z,7.57
2023-04-24T21:22:02.425Z,7.80
2023-04-24T21:24:34.952Z,7.83
2023-04-24T21:27:08.117Z,7.40
2023-04-24T21:29:40.686Z,7.33
2023-04-24T21:32:19.369Z,6.90
2023-04-24T21:34:52.199Z,8.13
2023-04-24T21:37:24.541Z,7.70
2023-04-24T21:39:57.267Z,7.63
2023-04-24T21:42:32.495Z,7.87
2023-04-24T21:45:05.892Z,7.67
2023-04-24T21:47:38.629Z,7.33
2023-04-24T21:50:15.377Z,7.30
2023-04-24T21:52:49.103Z,7.43
2023-04-24T21:55:23.710Z,6.90
2023-04-24T21:57:56.178Z,6.93
2023-04-24T22:00:29.439Z,7.27
2023-04-24T22:03:01.945Z,7.90
2023-04-24T22:05:35.632Z,7.10
2023-04-24T22:08:08.228Z,7.45
2023-04-24T22:10:47.296Z,7.63
2023-04-24T22:13:19.760Z,8.27
2023-04-24T22:15:55.113Z,6.80
2023-04-24T22:18:36.570Z,7.37
2023-04-24T22:21:17.947Z,7.50
2023-04-24T22:23:50.857Z,8.43
2023-04-24T22:26:24.313Z,8.43
2023-04-24T22:28:56.780Z,8.50
2023-04-24T22:31:29.610Z,8.23
2023-04-24T22:34:04.069Z,8.60
2023-04-24T22:36:37.333Z,8.33
2023-04-24T22:39:10.858Z,8.77
2023-04-24T22:41:44.490Z,9.13
2023-04-24T22:44:21.873Z,8.30
2023-04-24T22:46:54.464Z,9.30
2023-04-24T22:49:28.456Z,8.90
2023-04-24T22:54:35.420Z,8.60
2023-04-24T22:57:08.368Z,9.23
2023-04-24T22:59:41.039Z,8.60
2023-04-24T23:02:16.177Z,8.60
2023-04-24T23:04:49.577Z,9.60
2023-04-24T23:07:22.512Z,9.07
2023-04-24T23:09:56.184Z,9.30
2023-04-24T23:12:32.977Z,9.30
2023-04-24T23:15:09.244Z,9.13
2023-04-24T23:17:42.623Z,9.13
2023-04-24T23:20:19.782Z,9.38
2023-04-24T23:22:53.820Z,9.30
2023-04-24T23:25:26.481Z,9.40
2023-04-24T23:27:58.988Z,9.60
2023-04-24T23:30:31.658Z,10.40
2023-04-24T23:33:04.549Z,10.77
2023-04-24T23:35:37.601Z,11.03
2023-04-24T23:38:12.592Z,11.70
2023-04-24T23:40:59.259Z,10.17
2023-04-24T23:43:31.920Z,9.80
2023-04-24T23:46:04.879Z,11.07
2023-04-24T23:48:37.859Z,11.23
2023-04-24T23:51:11.818Z,10.53
2023-04-24T23:53:44.730Z,10.13
2023-04-24T23:56:19.539Z,10.70
2023-04-24T23:58:52.692Z,9.47
